createdAt,value
2016-07-09T00:00:09.946Z,1011.21
2016-07-09T00:00:39.956Z,1011.16
2016-07-09T00:01:09.967Z,1011.18
2016-07-09T00:01:39.977Z,1011.16
2016-07-09T00:02:10.001Z,1011.2
2016-07-09T00:02:40.015Z,1011.19
2016-07-09T00:03:10.023Z,1011.19
2016-07-09T00:03:40.047Z,1011.22
2016-07-09T00:04:10.071Z,1011.23
2016-07-09T00:04:40.066Z,1011.22
2016-07-09T00:05:10.093Z,1011.25
2016-07-09T00:05:39.494Z,1011.21
2016-07-09T00:06:09.505Z,1011.2
2016-07-09T00:06:40.136Z,1011.22
2016-07-09T00:07:10.152Z,1011.23
2016-07-09T00:07:40.154Z,1011.25
2016-07-09T00:08:10.181Z,1011.29
2016-07-09T00:08:40.192Z,1011.29
2016-07-09T00:09:09.587Z,1011.26
2016-07-09T00:09:40.228Z,1011.28
2016-07-09T00:10:10.243Z,1011.29
2016-07-09T00:10:40.246Z,1011.29
2016-07-09T00:11:10.272Z,1011.32
2016-07-09T00:11:40.290Z,1011.3
2016-07-09T00:12:10.296Z,1011.34
2016-07-09T00:12:40.313Z,1011.3
2016-07-09T00:13:10.332Z,1011.32
2016-07-09T00:13:40.336Z,1011.34
2016-07-09T00:14:10.362Z,1011.37
2016-07-09T00:14:40.378Z,1011.38
2016-07-09T00:15:10.383Z,1011.35
2016-07-09T00:15:40.411Z,1011.34
2016-07-09T00:16:09.807Z,1011.37
2016-07-09T00:16:40.431Z,1011.32
2016-07-09T00:17:09.836Z,1011.33
2016-07-09T00:17:40.456Z,1011.35
2016-07-09T00:18:10.473Z,1011.36
2016-07-09T00:18:40.483Z,1011.32
2016-07-09T00:19:10.512Z,1011.33
2016-07-09T00:19:40.509Z,1011.32
2016-07-09T00:20:09.916Z,1011.33
2016-07-09T00:20:40.547Z,1011.32
2016-07-09T00:21:09.946Z,1011.31
2016-07-09T00:21:40.582Z,1011.33
2016-07-09T00:22:09.988Z,1011.34
2016-07-09T00:22:40.600Z,1011.33
2016-07-09T00:23:10.014Z,1011.35
2016-07-09T00:23:40.645Z,1011.38
2016-07-09T00:24:10.643Z,1011.4
2016-07-09T00:24:40.669Z,1011.4
2016-07-09T00:25:10.070Z,1011.4
2016-07-09T00:25:40.692Z,1011.42
2016-07-09T00:26:10.717Z,1011.42
2016-07-09T00:26:40.726Z,1011.43
2016-07-09T00:27:10.747Z,1011.41
2016-07-09T00:27:40.760Z,1011.4
2016-07-09T00:28:10.170Z,1011.41
2016-07-09T00:28:40.781Z,1011.44
2016-07-09T00:29:10.812Z,1011.41
2016-07-09T00:29:40.817Z,1011.39
2016-07-09T00:30:10.828Z,1011.38
2016-07-09T00:30:40.851Z,1011.38
2016-07-09T00:31:10.253Z,1011.37
2016-07-09T00:31:40.871Z,1011.38
2016-07-09T00:32:10.890Z,1011.35
2016-07-09T00:32:40.288Z,1011.34
2016-07-09T00:33:10.918Z,1011.35
2016-07-09T00:33:40.944Z,1011.34
2016-07-09T00:34:10.963Z,1011.38
2016-07-09T00:34:40.959Z,1011.34
2016-07-09T00:35:10.993Z,1011.33
2016-07-09T00:35:40.996Z,1011.35
2016-07-09T00:36:11.005Z,1011.35
2016-07-09T00:36:41.023Z,1011.34
2016-07-09T00:37:11.048Z,1011.35
2016-07-09T00:37:41.042Z,1011.35
2016-07-09T00:38:11.066Z,1011.34
2016-07-09T00:38:41.083Z,1011.32
2016-07-09T00:39:11.102Z,1011.32
2016-07-09T00:39:41.112Z,1011.35
2016-07-09T00:40:11.125Z,1011.36
2016-07-09T00:40:41.150Z,1011.37
2016-07-09T00:41:11.150Z,1011.35
2016-07-09T00:41:41.179Z,1011.36
2016-07-09T00:42:11.191Z,1011.35
2016-07-09T00:42:41.206Z,1011.37
2016-07-09T00:43:11.224Z,1011.35
2016-07-09T00:43:41.234Z,1011.36
2016-07-09T00:44:10.627Z,1011.37
2016-07-09T00:44:41.263Z,1011.35
2016-07-09T00:45:10.678Z,1011.36
2016-07-09T00:45:41.288Z,1011.34
2016-07-09T00:46:11.300Z,1011.35
2016-07-09T00:46:41.323Z,1011.38
2016-07-09T00:47:11.323Z,1011.34
2016-07-09T00:47:41.353Z,1011.31
2016-07-09T00:48:11.361Z,1011.34
2016-07-09T00:48:41.384Z,1011.38
2016-07-09T00:49:10.161Z,1011.37
2016-07-09T00:49:41.413Z,1011.35
2016-07-09T00:50:11.417Z,1011.39
2016-07-09T00:50:41.447Z,1011.37
2016-07-09T00:51:11.447Z,1011.36
2016-07-09T00:51:41.468Z,1011.39
2016-07-09T00:52:11.481Z,1011.4
2016-07-09T00:52:40.886Z,1011.4
2016-07-09T00:53:11.508Z,1011.37
2016-07-09T00:53:41.520Z,1011.38
2016-07-09T00:54:11.552Z,1011.38
2016-07-09T00:54:41.559Z,1011.38
2016-07-09T00:55:11.571Z,1011.35
2016-07-09T00:55:41.588Z,1011.35
2016-07-09T00:56:11.612Z,1011.36
2016-07-09T00:56:41.609Z,1011.34
2016-07-09T00:57:11.637Z,1011.35
2016-07-09T00:57:41.641Z,1011.34
2016-07-09T00:58:11.651Z,1011.36
2016-07-09T00:58:41.671Z,1011.33
2016-07-09T00:59:11.693Z,1011.4
2016-07-09T00:59:41.705Z,1011.3
2016-07-09T01:00:11.718Z,1011.33
2016-07-09T01:00:41.113Z,1011.31
2016-07-09T01:01:11.745Z,1011.32
2016-07-09T01:01:41.775Z,1011.31
2016-07-09T01:02:11.792Z,1011.34
2016-07-09T01:02:41.174Z,1011.32
2016-07-09T01:03:11.807Z,1011.33
2016-07-09T01:03:41.831Z,1011.32
2016-07-09T01:04:11.221Z,1011.33
2016-07-09T01:04:40.632Z,1011.31
2016-07-09T01:05:11.867Z,1011.33
2016-07-09T01:05:41.874Z,1011.32
2016-07-09T01:06:11.895Z,1011.34
2016-07-09T01:06:41.911Z,1011.37
2016-07-09T01:07:11.927Z,1011.32
2016-07-09T01:07:41.948Z,1011.35
2016-07-09T01:08:11.970Z,1011.33
2016-07-09T01:08:41.347Z,1011.35
2016-07-09T01:09:11.989Z,1011.32
2016-07-09T01:09:41.999Z,1011.35
2016-07-09T01:10:11.404Z,1011.34
2016-07-09T01:10:42.031Z,1011.34
2016-07-09T01:11:11.440Z,1011.35
2016-07-09T01:11:42.059Z,1011.37
2016-07-09T01:12:12.084Z,1011.38
2016-07-09T01:12:42.082Z,1011.33
2016-07-09T01:13:12.092Z,1011.36
2016-07-09T01:13:42.130Z,1011.37
2016-07-09T01:14:12.131Z,1011.36
2016-07-09T01:14:42.144Z,1011.39
2016-07-09T01:15:12.160Z,1011.38
2016-07-09T01:15:41.582Z,1011.43
2016-07-09T01:16:12.185Z,1011.4
2016-07-09T01:16:41.597Z,1011.47
2016-07-09T01:17:12.213Z,1011.48
2016-07-09T01:17:41.626Z,1011.52
2016-07-09T01:18:12.251Z,1011.5
2016-07-09T01:18:42.257Z,1011.5
2016-07-09T01:19:12.289Z,1011.56
2016-07-09T01:19:42.304Z,1011.54
2016-07-09T01:20:12.305Z,1011.57
2016-07-09T01:20:42.329Z,1011.56
2016-07-09T01:21:12.361Z,1011.55
2016-07-09T01:21:41.119Z,1011.55
2016-07-09T01:22:12.376Z,1011.54
2016-07-09T01:22:41.772Z,1011.53
2016-07-09T01:23:12.392Z,1011.53
2016-07-09T01:23:42.421Z,1011.53
2016-07-09T01:24:12.434Z,1011.52
2016-07-09T01:24:42.435Z,1011.5
2016-07-09T01:25:12.459Z,1011.52
2016-07-09T01:25:41.254Z,1011.49
2016-07-09T01:26:12.479Z,1011.53
2016-07-09T01:26:42.499Z,1011.53
2016-07-09T01:27:12.517Z,1011.5
2016-07-09T01:27:41.916Z,1011.47
2016-07-09T01:28:11.922Z,1011.48
2016-07-09T01:28:42.556Z,1011.49
2016-07-09T01:29:11.952Z,1011.47
2016-07-09T01:29:42.590Z,1011.48
2016-07-09T01:30:12.615Z,1011.47
2016-07-09T01:30:41.994Z,1011.49
2016-07-09T01:31:12.626Z,1011.47
2016-07-09T01:31:42.647Z,1011.47
2016-07-09T01:32:12.041Z,1011.48
2016-07-09T01:32:42.676Z,1011.51
2016-07-09T01:33:12.684Z,1011.48
2016-07-09T01:33:42.699Z,1011.47
2016-07-09T01:34:12.743Z,1011.46
2016-07-09T01:34:42.126Z,1011.47
2016-07-09T01:35:12.738Z,1011.48
2016-07-09T01:35:42.763Z,1011.47
2016-07-09T01:36:12.181Z,1011.47
2016-07-09T01:36:42.167Z,1011.46
2016-07-09T01:37:12.815Z,1011.45
2016-07-09T01:37:42.822Z,1011.43
2016-07-09T01:38:12.827Z,1011.43
2016-07-09T01:38:42.234Z,1011.43
2016-07-09T01:39:12.865Z,1011.45
2016-07-09T01:39:42.873Z,1011.41
2016-07-09T01:40:12.897Z,1011.43
2016-07-09T01:40:42.910Z,1011.46
2016-07-09T01:41:12.302Z,1011.46
2016-07-09T01:41:42.941Z,1011.45
2016-07-09T01:42:12.343Z,1011.44
2016-07-09T01:42:42.364Z,1011.47
2016-07-09T01:43:12.979Z,1011.48
2016-07-09T01:43:42.995Z,1011.48
2016-07-09T01:44:13.011Z,1011.48
2016-07-09T01:44:43.028Z,1011.46
2016-07-09T01:45:12.426Z,1011.52
2016-07-09T01:45:43.050Z,1011.51
2016-07-09T01:46:13.065Z,1011.51
2016-07-09T01:46:42.477Z,1011.53
2016-07-09T01:47:13.098Z,1011.53
2016-07-09T01:47:43.107Z,1011.54
2016-07-09T01:48:13.134Z,1011.53
2016-07-09T01:48:43.152Z,1011.54
2016-07-09T01:49:13.152Z,1011.54
2016-07-09T01:49:42.561Z,1011.58
2016-07-09T01:50:13.190Z,1011.59
2016-07-09T01:50:43.195Z,1011.6
2016-07-09T01:51:13.222Z,1011.59
2016-07-09T01:51:43.247Z,1011.6
2016-07-09T01:52:13.246Z,1011.62
2016-07-09T01:52:43.271Z,1011.63
2016-07-09T01:53:12.659Z,1011.6
2016-07-09T01:53:42.669Z,1011.6
2016-07-09T01:54:13.292Z,1011.66
2016-07-09T01:54:42.093Z,1011.64
2016-07-09T01:55:13.337Z,1011.64
2016-07-09T01:55:43.345Z,1011.6
2016-07-09T01:56:13.360Z,1011.57
2016-07-09T01:56:43.372Z,1011.59
2016-07-09T01:57:13.400Z,1011.59
2016-07-09T01:57:43.401Z,1011.56
2016-07-09T01:58:12.807Z,1011.59
2016-07-09T01:58:43.434Z,1011.66
2016-07-09T01:59:13.452Z,1011.62
2016-07-09T01:59:43.454Z,1011.64
2016-07-09T02:00:12.877Z,1011.69
2016-07-09T02:00:43.506Z,1011.66
2016-07-09T02:01:12.887Z,1011.69
2016-07-09T02:01:43.532Z,1011.7
2016-07-09T02:02:12.924Z,1011.72
2016-07-09T02:02:43.549Z,1011.73
2016-07-09T02:03:13.578Z,1011.7
2016-07-09T02:03:43.597Z,1011.74
2016-07-09T02:04:13.597Z,1011.73
2016-07-09T02:04:43.610Z,1011.7
2016-07-09T02:05:13.004Z,1011.73
2016-07-09T02:05:43.641Z,1011.75
2016-07-09T02:06:13.663Z,1011.74
2016-07-09T02:06:43.671Z,1011.74
2016-07-09T02:07:13.699Z,1011.72
2016-07-09T02:07:43.701Z,1011.72
2016-07-09T02:08:13.723Z,1011.67
2016-07-09T02:08:43.732Z,1011.68
2016-07-09T02:09:13.758Z,1011.66
2016-07-09T02:09:43.759Z,1011.65
2016-07-09T02:10:13.776Z,1011.66
2016-07-09T02:10:43.785Z,1011.65
2016-07-09T02:11:13.177Z,1011.63
2016-07-09T02:11:43.822Z,1011.66
2016-07-09T02:12:13.829Z,1011.66
2016-07-09T02:12:43.856Z,1011.65
2016-07-09T02:13:13.859Z,1011.66
2016-07-09T02:13:43.879Z,1011.64
2016-07-09T02:14:12.657Z,1011.66
2016-07-09T02:14:43.900Z,1011.65
2016-07-09T02:15:13.297Z,1011.61
2016-07-09T02:15:43.926Z,1011.61
2016-07-09T02:16:13.344Z,1011.64
2016-07-09T02:16:43.964Z,1011.59
2016-07-09T02:17:13.978Z,1011.64
2016-07-09T02:17:43.999Z,1011.58
2016-07-09T02:18:14.005Z,1011.56
2016-07-09T02:18:44.029Z,1011.55
2016-07-09T02:19:13.413Z,1011.56
2016-07-09T02:19:44.054Z,1011.54
2016-07-09T02:20:14.078Z,1011.55
2016-07-09T02:20:44.089Z,1011.59
2016-07-09T02:21:14.091Z,1011.54
2016-07-09T02:21:44.109Z,1011.54
2016-07-09T02:22:14.118Z,1011.56
2016-07-09T02:22:44.139Z,1011.58
2016-07-09T02:23:14.148Z,1011.59
2016-07-09T02:23:44.155Z,1011.65
2016-07-09T02:24:14.180Z,1011.61
2016-07-09T02:24:44.196Z,1011.62
2016-07-09T02:25:13.592Z,1011.62
2016-07-09T02:25:43.609Z,1011.65
2016-07-09T02:26:13.625Z,1011.62
2016-07-09T02:26:43.640Z,1011.65
2016-07-09T02:27:14.268Z,1011.65
2016-07-09T02:27:44.286Z,1011.67
2016-07-09T02:28:14.299Z,1011.66
2016-07-09T02:28:44.318Z,1011.66
2016-07-09T02:29:14.321Z,1011.63
2016-07-09T02:29:44.344Z,1011.66
2016-07-09T02:30:13.128Z,1011.64
2016-07-09T02:30:44.366Z,1011.65
2016-07-09T02:31:14.387Z,1011.66
2016-07-09T02:31:43.784Z,1011.65
2016-07-09T02:32:14.418Z,1011.64
2016-07-09T02:32:44.436Z,1011.65
2016-07-09T02:33:14.444Z,1011.64
2016-07-09T02:33:44.463Z,1011.64
2016-07-09T02:34:13.865Z,1011.68
2016-07-09T02:34:43.862Z,1011.68
2016-07-09T02:35:14.503Z,1011.64
2016-07-09T02:35:44.527Z,1011.66
2016-07-09T02:36:14.525Z,1011.68
2016-07-09T02:36:43.939Z,1011.66
2016-07-09T02:37:13.964Z,1011.64
2016-07-09T02:37:44.579Z,1011.66
2016-07-09T02:38:13.984Z,1011.65
2016-07-09T02:38:44.605Z,1011.65
2016-07-09T02:39:14.009Z,1011.69
2016-07-09T02:39:44.624Z,1011.66
2016-07-09T02:40:14.655Z,1011.7
2016-07-09T02:40:44.669Z,1011.68
2016-07-09T02:41:13.440Z,1011.66
2016-07-09T02:41:44.698Z,1011.68
2016-07-09T02:42:14.103Z,1011.67
2016-07-09T02:42:44.723Z,1011.66
2016-07-09T02:43:14.123Z,1011.64
2016-07-09T02:43:44.741Z,1011.66
2016-07-09T02:44:14.764Z,1011.62
2016-07-09T02:44:44.782Z,1011.66
2016-07-09T02:45:14.799Z,1011.66
2016-07-09T02:45:44.811Z,1011.62
2016-07-09T02:46:14.835Z,1011.63
2016-07-09T02:46:44.838Z,1011.65
2016-07-09T02:47:14.856Z,1011.66
2016-07-09T02:47:44.873Z,1011.65
2016-07-09T02:48:14.883Z,1011.68
2016-07-09T02:48:44.900Z,1011.67
2016-07-09T02:49:14.916Z,1011.64
2016-07-09T02:49:44.317Z,1011.61
2016-07-09T02:50:14.933Z,1011.62
2016-07-09T02:50:44.960Z,1011.66
2016-07-09T02:51:14.968Z,1011.64
2016-07-09T02:51:44.986Z,1011.63
2016-07-09T02:52:15.017Z,1011.64
2016-07-09T02:52:44.403Z,1011.62
2016-07-09T02:53:15.035Z,1011.63
2016-07-09T02:53:45.048Z,1011.59
2016-07-09T02:54:15.057Z,1011.63
2016-07-09T02:54:45.076Z,1011.59
2016-07-09T02:55:15.092Z,1011.67
2016-07-09T02:55:45.105Z,1011.65
2016-07-09T02:56:15.112Z,1011.65
2016-07-09T02:56:45.137Z,1011.63
2016-07-09T02:57:14.531Z,1011.67
2016-07-09T02:57:44.541Z,1011.64
2016-07-09T02:58:13.953Z,1011.64
2016-07-09T02:58:44.574Z,1011.68
2016-07-09T02:59:15.200Z,1011.65
2016-07-09T02:59:45.219Z,1011.65
2016-07-09T03:00:14.622Z,1011.64
2016-07-09T03:00:45.244Z,1011.65
2016-07-09T03:01:15.264Z,1011.67
2016-07-09T03:01:45.280Z,1011.66
2016-07-09T03:02:15.299Z,1011.68
2016-07-09T03:02:45.305Z,1011.68
2016-07-09T03:03:15.330Z,1011.67
2016-07-09T03:03:44.726Z,1011.66
2016-07-09T03:04:15.357Z,1011.68
2016-07-09T03:04:45.399Z,1011.67
2016-07-09T03:05:14.761Z,1011.7
2016-07-09T03:05:45.398Z,1011.71
2016-07-09T03:06:15.406Z,1011.72
2016-07-09T03:06:44.804Z,1011.71
2016-07-09T03:07:15.442Z,1011.7
2016-07-09T03:07:45.454Z,1011.75
2016-07-09T03:08:15.461Z,1011.73
2016-07-09T03:08:45.498Z,1011.72
2016-07-09T03:09:14.883Z,1011.72
2016-07-09T03:09:45.509Z,1011.77
2016-07-09T03:10:15.528Z,1011.77
2016-07-09T03:10:45.540Z,1011.78
2016-07-09T03:11:15.552Z,1011.78
2016-07-09T03:11:45.570Z,1011.78
2016-07-09T03:12:14.961Z,1011.74
2016-07-09T03:12:45.595Z,1011.78
2016-07-09T03:13:15.622Z,1011.78
2016-07-09T03:13:45.623Z,1011.78
2016-07-09T03:14:15.638Z,1011.78
2016-07-09T03:14:45.662Z,1011.75
2016-07-09T03:15:15.056Z,1011.73
2016-07-09T03:15:45.683Z,1011.73
2016-07-09T03:16:15.082Z,1011.77
2016-07-09T03:16:45.713Z,1011.74
2016-07-09T03:17:15.721Z,1011.75
2016-07-09T03:17:45.750Z,1011.76
2016-07-09T03:18:15.762Z,1011.77
2016-07-09T03:18:45.773Z,1011.74
2016-07-09T03:19:15.801Z,1011.73
2016-07-09T03:19:45.803Z,1011.76
2016-07-09T03:20:15.816Z,1011.79
2016-07-09T03:20:45.227Z,1011.8
2016-07-09T03:21:15.870Z,1011.82
2016-07-09T03:21:45.862Z,1011.83
2016-07-09T03:22:15.884Z,1011.8
2016-07-09T03:22:45.272Z,1011.83
2016-07-09T03:23:15.918Z,1011.83
2016-07-09T03:23:45.930Z,1011.87
2016-07-09T03:24:15.937Z,1011.81
2016-07-09T03:24:45.945Z,1011.86
2016-07-09T03:25:15.958Z,1011.89
2016-07-09T03:25:45.981Z,1011.88
2016-07-09T03:26:15.384Z,1011.89
2016-07-09T03:26:46.009Z,1011.88
2016-07-09T03:27:16.024Z,1011.88
2016-07-09T03:27:45.416Z,1011.88
2016-07-09T03:28:16.043Z,1011.9
2016-07-09T03:28:46.074Z,1011.88
2016-07-09T03:29:16.072Z,1011.91
2016-07-09T03:29:46.108Z,1011.88
2016-07-09T03:30:16.129Z,1011.87
2016-07-09T03:30:46.129Z,1011.88
2016-07-09T03:31:16.140Z,1011.87
2016-07-09T03:31:44.930Z,1011.87
2016-07-09T03:32:16.163Z,1011.89
2016-07-09T03:32:45.567Z,1011.88
2016-07-09T03:33:16.197Z,1011.89
2016-07-09T03:33:46.206Z,1011.94
2016-07-09T03:34:16.245Z,1011.93
2016-07-09T03:34:46.248Z,1011.95
2016-07-09T03:35:16.249Z,1011.94
2016-07-09T03:35:46.270Z,1011.94
2016-07-09T03:36:16.280Z,1011.95
2016-07-09T03:36:46.293Z,1011.98
2016-07-09T03:37:16.313Z,1011.99
2016-07-09T03:37:46.340Z,1012
2016-07-09T03:38:15.732Z,1011.99
2016-07-09T03:38:46.356Z,1012.01
2016-07-09T03:39:16.375Z,1011.98
2016-07-09T03:39:46.399Z,1012.01
2016-07-09T03:40:16.414Z,1011.95
2016-07-09T03:40:46.434Z,1012
2016-07-09T03:41:15.811Z,1011.98
2016-07-09T03:41:46.443Z,1011.98
2016-07-09T03:42:16.466Z,1012.02
2016-07-09T03:42:46.465Z,1012.01
2016-07-09T03:43:16.491Z,1012.01
2016-07-09T03:43:46.523Z,1012.01
2016-07-09T03:44:15.299Z,1011.99
2016-07-09T03:44:46.525Z,1012
2016-07-09T03:45:16.554Z,1011.98
2016-07-09T03:45:45.954Z,1012.01
2016-07-09T03:46:16.575Z,1012.03
2016-07-09T03:46:46.605Z,1012
2016-07-09T03:47:16.613Z,1012.03
2016-07-09T03:47:46.614Z,1012.04
2016-07-09T03:48:16.640Z,1012.04
2016-07-09T03:48:46.654Z,1012.03
2016-07-09T03:49:16.679Z,1012.02
2016-07-09T03:49:46.681Z,1012.01
2016-07-09T03:50:15.460Z,1012.05
2016-07-09T03:50:46.719Z,1012.07
2016-07-09T03:51:16.715Z,1012.04
2016-07-09T03:51:46.742Z,1012.05
2016-07-09T03:52:16.754Z,1012.05
2016-07-09T03:52:46.767Z,1012.07
2016-07-09T03:53:16.790Z,1012.06
2016-07-09T03:53:46.176Z,1012.07
2016-07-09T03:54:16.192Z,1012.1
2016-07-09T03:54:46.214Z,1012.06
2016-07-09T03:55:16.225Z,1012.09
2016-07-09T03:55:46.854Z,1012.1
2016-07-09T03:56:16.878Z,1012.05
2016-07-09T03:56:46.882Z,1012.02
2016-07-09T03:57:16.905Z,1012.04
2016-07-09T03:57:46.305Z,1012.04
2016-07-09T03:58:16.929Z,1011.99
2016-07-09T03:58:46.937Z,1012.01
2016-07-09T03:59:16.344Z,1012.01
2016-07-09T03:59:46.370Z,1012.06
2016-07-09T04:00:16.370Z,1012.05
2016-07-09T04:00:47.016Z,1012.06
2016-07-09T04:01:16.412Z,1012.04
2016-07-09T04:01:47.023Z,1012.04
2016-07-09T04:02:17.052Z,1012.05
2016-07-09T04:02:47.061Z,1012.03
2016-07-09T04:03:17.072Z,1012.1
2016-07-09T04:03:47.095Z,1012.09
2016-07-09T04:04:17.112Z,1012.09
2016-07-09T04:04:47.134Z,1012.09
2016-07-09T04:05:17.138Z,1012.15
2016-07-09T04:05:46.533Z,1012.17
2016-07-09T04:06:15.943Z,1012.12
2016-07-09T04:06:47.185Z,1012.2
2016-07-09T04:07:17.208Z,1012.16
2016-07-09T04:07:47.201Z,1012.17
2016-07-09T04:08:17.218Z,1012.16
2016-07-09T04:08:47.246Z,1012.1
2016-07-09T04:09:17.244Z,1012.11
2016-07-09T04:09:47.264Z,1012.14
2016-07-09T04:10:17.287Z,1012.17
2016-07-09T04:10:46.675Z,1012.13
2016-07-09T04:11:17.311Z,1012.15
2016-07-09T04:11:47.335Z,1012.12
2016-07-09T04:12:17.334Z,1012.14
2016-07-09T04:12:47.359Z,1012.18
2016-07-09T04:13:17.371Z,1012.2
2016-07-09T04:13:47.395Z,1012.19
2016-07-09T04:14:17.416Z,1012.13
2016-07-09T04:14:47.418Z,1012.18
2016-07-09T04:15:16.806Z,1012.14
2016-07-09T04:15:46.837Z,1012.18
2016-07-09T04:16:17.455Z,1012.18
2016-07-09T04:16:47.471Z,1012.14
2016-07-09T04:17:17.486Z,1012.15
2016-07-09T04:17:46.898Z,1012.18
2016-07-09T04:18:17.516Z,1012.19
2016-07-09T04:18:47.529Z,1012.23
2016-07-09T04:19:17.546Z,1012.27
2016-07-09T04:19:47.569Z,1012.27
2016-07-09T04:20:17.575Z,1012.27
2016-07-09T04:20:47.591Z,1012.25
2016-07-09T04:21:17.017Z,1012.29
2016-07-09T04:21:47.609Z,1012.31
2016-07-09T04:22:17.629Z,1012.34
2016-07-09T04:22:47.036Z,1012.3
2016-07-09T04:23:17.652Z,1012.29
2016-07-09T04:23:47.681Z,1012.3
2016-07-09T04:24:17.691Z,1012.3
2016-07-09T04:24:47.703Z,1012.33
2016-07-09T04:25:17.104Z,1012.32
2016-07-09T04:25:47.743Z,1012.34
2016-07-09T04:26:17.744Z,1012.33
2016-07-09T04:26:47.155Z,1012.31
2016-07-09T04:27:17.788Z,1012.32
2016-07-09T04:27:47.797Z,1012.34
2016-07-09T04:28:17.816Z,1012.34
2016-07-09T04:28:47.216Z,1012.34
2016-07-09T04:29:17.835Z,1012.31
2016-07-09T04:29:47.863Z,1012.3
2016-07-09T04:30:17.874Z,1012.3
2016-07-09T04:30:47.882Z,1012.31
2016-07-09T04:31:17.293Z,1012.35
2016-07-09T04:31:47.916Z,1012.34
2016-07-09T04:32:16.692Z,1012.32
2016-07-09T04:32:47.341Z,1012.31
2016-07-09T04:33:16.731Z,1012.32
2016-07-09T04:33:47.972Z,1012.39
2016-07-09T04:34:17.977Z,1012.34
2016-07-09T04:34:48.016Z,1012.34
2016-07-09T04:35:18.026Z,1012.35
2016-07-09T04:35:48.027Z,1012.35
2016-07-09T04:36:18.046Z,1012.35
2016-07-09T04:36:48.057Z,1012.37
2016-07-09T04:37:18.070Z,1012.42
2016-07-09T04:37:48.090Z,1012.42
2016-07-09T04:38:18.102Z,1012.47
2016-07-09T04:38:48.125Z,1012.42
2016-07-09T04:39:18.147Z,1012.44
2016-07-09T04:39:48.163Z,1012.43
2016-07-09T04:40:18.166Z,1012.46
2016-07-09T04:40:48.180Z,1012.46
2016-07-09T04:41:17.589Z,1012.43
2016-07-09T04:41:48.222Z,1012.45
2016-07-09T04:42:17.609Z,1012.47
2016-07-09T04:42:47.626Z,1012.5
2016-07-09T04:43:18.250Z,1012.46
2016-07-09T04:43:48.277Z,1012.48
2016-07-09T04:44:18.279Z,1012.46
2016-07-09T04:44:48.304Z,1012.52
2016-07-09T04:45:18.324Z,1012.48
2016-07-09T04:45:48.342Z,1012.46
2016-07-09T04:46:17.734Z,1012.46
2016-07-09T04:46:48.358Z,1012.48
2016-07-09T04:47:18.380Z,1012.49
2016-07-09T04:47:48.390Z,1012.51
2016-07-09T04:48:17.794Z,1012.49
2016-07-09T04:48:48.428Z,1012.48
2016-07-09T04:49:17.827Z,1012.48
2016-07-09T04:49:48.461Z,1012.48
2016-07-09T04:50:18.480Z,1012.52
2016-07-09T04:50:48.469Z,1012.52
2016-07-09T04:51:18.488Z,1012.51
2016-07-09T04:51:48.511Z,1012.47
2016-07-09T04:52:18.510Z,1012.51
2016-07-09T04:52:48.537Z,1012.49
2016-07-09T04:53:18.550Z,1012.51
2016-07-09T04:53:48.566Z,1012.48
2016-07-09T04:54:18.583Z,1012.47
2016-07-09T04:54:48.601Z,1012.5
2016-07-09T04:55:18.610Z,1012.51
2016-07-09T04:55:48.627Z,1012.49
2016-07-09T04:56:18.019Z,1012.47
2016-07-09T04:56:48.031Z,1012.47
2016-07-09T04:57:18.669Z,1012.48
2016-07-09T04:57:48.688Z,1012.46
2016-07-09T04:58:18.696Z,1012.42
2016-07-09T04:58:48.710Z,1012.44
2016-07-09T04:59:18.755Z,1012.44
2016-07-09T04:59:48.125Z,1012.48
2016-07-09T05:00:18.764Z,1012.48
2016-07-09T05:00:48.778Z,1012.43
2016-07-09T05:01:18.178Z,1012.48
2016-07-09T05:01:48.797Z,1012.46
2016-07-09T05:02:18.826Z,1012.46
2016-07-09T05:02:48.829Z,1012.47
2016-07-09T05:03:18.845Z,1012.45
2016-07-09T05:03:48.899Z,1012.46
2016-07-09T05:04:18.874Z,1012.47
2016-07-09T05:04:48.286Z,1012.44
2016-07-09T05:05:18.913Z,1012.46
2016-07-09T05:05:48.913Z,1012.45
2016-07-09T05:06:18.932Z,1012.45
2016-07-09T05:06:48.949Z,1012.45
2016-07-09T05:07:18.963Z,1012.49
2016-07-09T05:07:48.372Z,1012.46
2016-07-09T05:08:18.380Z,1012.5
2016-07-09T05:08:49.019Z,1012.48
2016-07-09T05:09:19.029Z,1012.49
2016-07-09T05:09:49.048Z,1012.46
2016-07-09T05:10:19.051Z,1012.44
2016-07-09T05:10:48.461Z,1012.45
2016-07-09T05:11:18.480Z,1012.46
2016-07-09T05:11:49.109Z,1012.45
2016-07-09T05:12:19.121Z,1012.47
2016-07-09T05:12:49.140Z,1012.49
2016-07-09T05:13:18.538Z,1012.54
2016-07-09T05:13:49.165Z,1012.55
2016-07-09T05:14:19.173Z,1012.56
2016-07-09T05:14:49.191Z,1012.55
2016-07-09T05:15:19.214Z,1012.55
2016-07-09T05:15:49.229Z,1012.53
2016-07-09T05:16:19.238Z,1012.55
2016-07-09T05:16:49.259Z,1012.52
2016-07-09T05:17:18.652Z,1012.54
2016-07-09T05:17:49.284Z,1012.52
2016-07-09T05:18:19.298Z,1012.5
2016-07-09T05:18:48.696Z,1012.56
2016-07-09T05:19:19.331Z,1012.58
2016-07-09T05:19:49.344Z,1012.55
2016-07-09T05:20:19.378Z,1012.56
2016-07-09T05:20:49.381Z,1012.58
2016-07-09T05:21:18.778Z,1012.56
2016-07-09T05:21:49.410Z,1012.59
2016-07-09T05:22:19.412Z,1012.54
2016-07-09T05:22:48.826Z,1012.54
2016-07-09T05:23:19.453Z,1012.54
2016-07-09T05:23:48.232Z,1012.58
2016-07-09T05:24:19.489Z,1012.59
2016-07-09T05:24:49.504Z,1012.6
2016-07-09T05:25:19.507Z,1012.62
2016-07-09T05:25:49.537Z,1012.61
2016-07-09T05:26:19.544Z,1012.61
2016-07-09T05:26:49.553Z,1012.61
2016-07-09T05:27:19.581Z,1012.62
2016-07-09T05:27:49.600Z,1012.6
2016-07-09T05:28:19.606Z,1012.61
2016-07-09T05:28:49.630Z,1012.61
2016-07-09T05:29:19.039Z,1012.58
2016-07-09T05:29:49.653Z,1012.61
2016-07-09T05:30:19.667Z,1012.58
2016-07-09T05:30:49.683Z,1012.59
2016-07-09T05:31:19.082Z,1012.62
2016-07-09T05:31:49.718Z,1012.62
2016-07-09T05:32:19.726Z,1012.64
2016-07-09T05:32:49.735Z,1012.68
2016-07-09T05:33:19.755Z,1012.65
2016-07-09T05:33:49.155Z,1012.64
2016-07-09T05:34:19.793Z,1012.66
2016-07-09T05:34:49.810Z,1012.67
2016-07-09T05:35:19.819Z,1012.67
2016-07-09T05:35:49.216Z,1012.68
2016-07-09T05:36:19.846Z,1012.67
2016-07-09T05:36:49.863Z,1012.72
2016-07-09T05:37:19.890Z,1012.74
2016-07-09T05:37:49.911Z,1012.7
2016-07-09T05:38:19.906Z,1012.64
2016-07-09T05:38:49.931Z,1012.72
2016-07-09T05:39:19.938Z,1012.72
2016-07-09T05:39:49.950Z,1012.73
2016-07-09T05:40:19.969Z,1012.75
2016-07-09T05:40:49.370Z,1012.74
2016-07-09T05:41:19.384Z,1012.76
2016-07-09T05:41:50.019Z,1012.76
2016-07-09T05:42:20.035Z,1012.75
2016-07-09T05:42:49.428Z,1012.75
2016-07-09T05:43:20.073Z,1012.73
2016-07-09T05:43:49.480Z,1012.73
2016-07-09T05:44:20.092Z,1012.77
2016-07-09T05:44:48.882Z,1012.79
2016-07-09T05:45:19.499Z,1012.74
2016-07-09T05:45:50.131Z,1012.74
2016-07-09T05:46:20.156Z,1012.76
2016-07-09T05:46:50.162Z,1012.74
2016-07-09T05:47:20.197Z,1012.77
2016-07-09T05:47:50.208Z,1012.81
2016-07-09T05:48:20.207Z,1012.81
2016-07-09T05:48:50.229Z,1012.84
2016-07-09T05:49:20.256Z,1012.86
2016-07-09T05:49:49.033Z,1012.86
2016-07-09T05:50:20.269Z,1012.83
2016-07-09T05:50:49.679Z,1012.84
2016-07-09T05:51:20.311Z,1012.87
2016-07-09T05:51:50.330Z,1012.86
2016-07-09T05:52:19.729Z,1012.87
2016-07-09T05:52:49.740Z,1012.91
2016-07-09T05:53:20.372Z,1012.9
2016-07-09T05:53:49.766Z,1012.85
2016-07-09T05:54:20.401Z,1012.84
2016-07-09T05:54:49.805Z,1012.87
2016-07-09T05:55:20.429Z,1012.84
2016-07-09T05:55:49.830Z,1012.87
2016-07-09T05:56:19.842Z,1012.85
2016-07-09T05:56:50.485Z,1012.85
2016-07-09T05:57:20.499Z,1012.85
2016-07-09T05:57:50.514Z,1012.85
2016-07-09T05:58:20.521Z,1012.85
2016-07-09T05:58:50.550Z,1012.85
2016-07-09T05:59:20.551Z,1012.84
2016-07-09T05:59:50.581Z,1012.84
2016-07-09T06:00:20.594Z,1012.88
2016-07-09T06:00:50.617Z,1012.86
2016-07-09T06:01:20.612Z,1012.9
2016-07-09T06:01:50.640Z,1012.91
2016-07-09T06:02:20.648Z,1012.94
2016-07-09T06:02:50.676Z,1012.91
2016-07-09T06:03:20.096Z,1012.91
2016-07-09T06:03:50.706Z,1012.83